Time;durP1;ratioP1;P1;durP2;ratioP2;P2;SDS_P1;SDS_P2;PMS_P1;PMS_P2;Temp;Humidity;BMP_temperature;BMP_pressure;BME280_temperature;BME280_humidity;BME280_pressure;Samples;Min_cycle;Max_cycle;Signal;HPM_P1;HPM_P2
2020/12/04 00:00:12;;;;;;;27.40;15.45;;;1.20;77.10;;;;;;5052282;28;20037;-64
2020/12/04 00:02:38;;;;;;;32.00;16.58;;;1.20;76.50;;;;;;5051123;28;20037;-66
2020/12/04 00:05:04;;;;;;;32.35;16.75;;;1.20;76.40;;;;;;5051927;28;20032;-65
2020/12/04 00:07:30;;;;;;;29.63;15.85;;;1.20;76.40;;;;;;5050883;28;20041;-65
2020/12/04 00:09:56;;;;;;;29.48;16.80;;;1.10;77.30;;;;;;5051955;28;20028;-65
2020/12/04 00:12:22;;;;;;;30.30;16.65;;;1.10;76.60;;;;;;5048845;28;20515;-65
2020/12/04 00:14:47;;;;;;;31.30;17.50;;;1.10;76.60;;;;;;5049255;28;20086;-65
2020/12/04 00:17:13;;;;;;;30.80;17.58;;;1.10;76.60;;;;;;5050490;28;20044;-66
2020/12/04 00:19:39;;;;;;;31.35;17.33;;;1.10;76.70;;;;;;5051937;28;20116;-66
2020/12/04 00:22:04;;;;;;;32.80;16.85;;;1.10;76.90;;;;;;5051388;28;20060;-65
2020/12/04 00:24:31;;;;;;;33.88;17.52;;;1.10;76.80;;;;;;5051385;28;20037;-65
2020/12/04 00:26:57;;;;;;;31.15;16.63;;;1.10;76.90;;;;;;5051660;28;20037;-64
2020/12/04 00:29:24;;;;;;;31.52;16.95;;;1.00;76.70;;;;;;5050381;28;20468;-65
2020/12/04 00:31:49;;;;;;;32.65;17.38;;;1.00;76.70;;;;;;5050588;28;20552;-66
2020/12/04 00:34:15;;;;;;;32.03;16.80;;;1.00;76.80;;;;;;5051784;28;20033;-64
2020/12/04 00:36:45;;;;;;;29.55;16.40;;;1.10;76.90;;;;;;5047464;28;20049;-66
2020/12/04 00:39:10;;;;;;;32.13;16.50;;;1.00;76.90;;;;;;5050903;28;20041;-65
2020/12/04 00:41:36;;;;;;;30.60;16.25;;;1.00;76.80;;;;;;5051390;28;20036;-64
2020/12/04 00:44:02;;;;;;;29.20;15.80;;;1.10;76.90;;;;;;5050448;28;20041;-63
2020/12/04 00:46:29;;;;;;;27.95;15.10;;;1.00;76.80;;;;;;5050341;28;20403;-63
2020/12/04 00:48:55;;;;;;;30.50;17.30;;;1.00;76.80;;;;;;5051351;28;20550;-62
2020/12/04 00:51:21;;;;;;;31.40;15.95;;;1.00;76.90;;;;;;5049202;28;20136;-62
2020/12/04 00:53:46;;;;;;;31.23;17.00;;;1.10;76.90;;;;;;5051129;28;20727;-63
2020/12/04 00:56:12;;;;;;;32.55;17.23;;;1.10;77.00;;;;;;5049453;28;20521;-63
2020/12/04 00:58:37;;;;;;;33.40;17.90;;;1.10;77.00;;;;;;5050614;28;20036;-63
2020/12/04 01:01:03;;;;;;;31.30;15.95;;;1.10;77.10;;;;;;5048544;28;20029;-63
2020/12/04 01:03:29;;;;;;;31.00;17.15;;;1.10;77.10;;;;;;5041291;28;20025;-63
2020/12/04 01:05:55;;;;;;;30.02;16.85;;;1.10;77.10;;;;;;5040672;28;20103;-61
2020/12/04 01:08:21;;;;;;;31.77;17.33;;;1.10;77.20;;;;;;5045785;28;20029;-63
2020/12/04 01:10:47;;;;;;;31.80;16.90;;;1.10;77.20;;;;;;5035781;28;20040;-63
2020/12/04 01:13:13;;;;;;;30.98;16.45;;;1.10;77.30;;;;;;5043292;28;20052;-62
2020/12/04 01:15:39;;;;;;;28.95;16.23;;;1.10;77.30;;;;;;5044331;28;20060;-63
2020/12/04 01:18:05;;;;;;;34.90;18.85;;;1.10;77.30;;;;;;5039196;28;20037;-62
2020/12/04 01:20:30;;;;;;;32.90;17.65;;;1.20;77.30;;;;;;5043657;28;20666;-64
2020/12/04 01:22:56;;;;;;;30.65;17.27;;;1.10;77.10;;;;;;5040626;28;20507;-64
2020/12/04 01:25:22;;;;;;;31.23;17.42;;;1.10;77.30;;;;;;5042189;28;20033;-64
2020/12/04 01:27:47;;;;;;;32.97;18.15;;;1.10;78.20;;;;;;5038223;28;20044;-61
2020/12/04 01:30:13;;;;;;;32.13;17.15;;;1.10;77.40;;;;;;5045226;28;20024;-63
2020/12/04 01:32:38;;;;;;;34.65;17.90;;;1.10;77.40;;;;;;5046113;28;20040;-64
2020/12/04 01:35:04;;;;;;;32.75;17.63;;;1.10;77.40;;;;;;5039122;28;20571;-63
2020/12/04 01:37:30;;;;;;;31.13;17.35;;;1.00;77.40;;;;;;5041736;28;20036;-63
2020/12/04 01:39:56;;;;;;;30.65;16.67;;;1.00;77.50;;;;;;5045088;28;20033;-63
2020/12/04 01:42:23;;;;;;;32.78;17.42;;;1.00;77.60;;;;;;5045393;28;20045;-64
2020/12/04 01:44:49;;;;;;;34.65;18.50;;;1.00;77.60;;;;;;5038535;28;20037;-63
2020/12/04 01:47:17;;;;;;;33.00;17.45;;;1.10;77.70;;;;;;5041797;28;20447;-63
2020/12/04 01:49:44;;;;;;;30.70;17.73;;;1.10;77.60;;;;;;5043474;28;20385;-63
2020/12/04 01:52:10;;;;;;;34.67;18.25;;;1.00;77.40;;;;;;5039548;28;20040;-63
2020/12/04 01:54:36;;;;;;;35.65;18.30;;;1.00;77.60;;;;;;5018851;28;20029;-63
2020/12/04 01:57:02;;;;;;;30.33;17.02;;;1.00;77.50;;;;;;5043008;28;20033;-63
2020/12/04 01:59:28;;;;;;;35.95;18.88;;;1.00;77.60;;;;;;5036900;28;20036;-63
2020/12/04 02:02:12;;;;;;;35.30;19.00;;;1.00;77.60;;;;;;5036690;28;20025;-63
2020/12/04 02:04:38;;;;;;;33.90;17.88;;;1.00;77.60;;;;;;5040442;28;20035;-63
2020/12/04 02:07:09;;;;;;;31.92;17.70;;;1.00;77.60;;;;;;5042954;28;22340;-63
2020/12/04 02:09:40;;;;;;;34.30;18.15;;;0.90;77.60;;;;;;5045441;28;20029;-63
2020/12/04 02:12:08;;;;;;;33.08;18.30;;;0.90;77.90;;;;;;5037055;28;20512;-63
2020/12/04 02:14:34;;;;;;;34.17;17.67;;;0.90;78.00;;;;;;5044438;28;20542;-63
2020/12/04 02:17:06;;;;;;;37.60;19.58;;;0.90;78.80;;;;;;5041250;28;20045;-63
2020/12/04 02:19:41;;;;;;;35.38;19.00;;;0.90;78.10;;;;;;5038969;28;20668;-65
2020/12/04 02:22:06;;;;;;;;;;;0.90;78.00;;;;;;5039383;28;20580;-65
2020/12/04 02:24:32;;;;;;;35.55;17.10;;;0.90;78.30;;;;;;5040249;28;20394;-64
2020/12/04 02:26:58;;;;;;;33.00;18.67;;;0.90;77.90;;;;;;5044963;28;20036;-65
2020/12/04 02:29:25;;;;;;;33.55;17.33;;;0.80;78.00;;;;;;5045362;28;20049;-64
2020/12/04 02:31:52;;;;;;;32.47;17.67;;;0.80;78.10;;;;;;5043699;28;20033;-65
2020/12/04 02:34:17;;;;;;;32.05;17.60;;;0.80;78.20;;;;;;5045217;28;20029;-65
2020/12/04 02:36:43;;;;;;;33.63;19.20;;;0.80;78.30;;;;;;5040701;28;20040;-65
2020/12/04 02:39:09;;;;;;;31.25;16.88;;;0.80;78.30;;;;;;5042871;28;20050;-65
2020/12/04 02:41:34;;;;;;;34.35;17.85;;;0.80;78.30;;;;;;5044810;28;20029;-65
2020/12/04 02:44:01;;;;;;;34.65;18.60;;;0.80;78.30;;;;;;5044914;28;20045;-65
2020/12/04 02:46:27;;;;;;;31.60;17.50;;;0.80;78.30;;;;;;5044366;28;20040;-65
2020/12/04 02:48:54;;;;;;;33.83;18.08;;;0.80;78.30;;;;;;5047791;28;20132;-65
2020/12/04 02:51:19;;;;;;;33.90;17.60;;;0.80;78.30;;;;;;5047793;28;20060;-64
2020/12/04 02:53:45;;;;;;;33.92;18.25;;;0.80;78.40;;;;;;5047489;28;20534;-64
2020/12/04 02:56:16;;;;;;;34.28;18.60;;;0.90;78.50;;;;;;5040192;28;20036;-63
2020/12/04 02:58:42;;;;;;;32.97;18.08;;;0.90;78.50;;;;;;5046428;28;20087;-64
2020/12/04 03:01:08;;;;;;;32.88;16.98;;;0.90;78.40;;;;;;5048795;28;20021;-65
2020/12/04 03:03:33;;;;;;;35.80;19.05;;;0.90;78.30;;;;;;5036538;28;20034;-66
2020/12/04 03:05:59;;;;;;;36.17;18.67;;;0.90;78.40;;;;;;5040683;28;20082;-66
2020/12/04 03:08:25;;;;;;;31.85;17.27;;;0.90;78.30;;;;;;5031845;28;20116;-66
2020/12/04 03:10:52;;;;;;;33.58;19.00;;;0.90;78.20;;;;;;5036090;28;20054;-66
2020/12/04 03:13:17;;;;;;;34.38;19.15;;;0.90;78.10;;;;;;5041055;28;20068;-66
2020/12/04 03:15:43;;;;;;;32.47;17.85;;;0.90;78.10;;;;;;5037904;28;20046;-66
2020/12/04 03:18:09;;;;;;;34.08;17.25;;;0.90;78.10;;;;;;5047775;28;20136;-66
2020/12/04 03:20:34;;;;;;;32.83;18.52;;;0.90;78.20;;;;;;5029358;28;20040;-66
2020/12/04 03:23:00;;;;;;;34.90;18.05;;;0.90;78.30;;;;;;5048958;28;20068;-66
2020/12/04 03:25:25;;;;;;;31.58;17.90;;;0.90;78.30;;;;;;5047653;28;20033;-66
2020/12/04 03:27:51;;;;;;;32.42;17.80;;;0.90;78.30;;;;;;5033735;28;20147;-63
2020/12/04 03:30:17;;;;;;;33.55;17.92;;;0.90;78.30;;;;;;5051235;28;20048;-64
2020/12/04 03:32:42;;;;;;;38.03;19.05;;;0.90;78.30;;;;;;5049932;28;20437;-64
2020/12/04 03:35:08;;;;;;;34.17;17.55;;;0.90;78.30;;;;;;5045679;28;20404;-64
2020/12/04 03:37:33;;;;;;;32.15;18.08;;;0.90;78.30;;;;;;5031418;28;20411;-64
2020/12/04 03:39:59;;;;;;;33.10;17.52;;;0.90;78.30;;;;;;5046238;28;20045;-64
2020/12/04 03:42:25;;;;;;;33.85;16.83;;;0.90;78.50;;;;;;5048204;28;20108;-64
2020/12/04 03:44:50;;;;;;;37.70;19.55;;;0.90;78.50;;;;;;5050384;28;20044;-64
2020/12/04 03:47:16;;;;;;;29.90;16.67;;;0.90;78.50;;;;;;5041985;28;20704;-64
2020/12/04 03:49:42;;;;;;;34.83;18.42;;;0.90;78.30;;;;;;5031645;28;20037;-64
2020/12/04 03:52:07;;;;;;;35.63;18.75;;;0.90;78.30;;;;;;5046865;28;20025;-64
2020/12/04 03:54:33;;;;;;;36.33;18.60;;;0.90;78.30;;;;;;5049102;28;20036;-64
2020/12/04 03:56:58;;;;;;;33.28;18.35;;;0.90;78.30;;;;;;5040232;28;20048;-64
2020/12/04 03:59:24;;;;;;;31.02;15.85;;;0.90;78.50;;;;;;5043883;28;20083;-64
2020/12/04 04:01:50;;;;;;;34.75;18.42;;;0.90;78.50;;;;;;5042004;28;20507;-64
2020/12/04 04:04:15;;;;;;;38.42;18.40;;;0.90;78.50;;;;;;5040037;28;20033;-64
2020/12/04 04:06:41;;;;;;;33.05;18.48;;;0.90;79.30;;;;;;5048099;28;20038;-63
2020/12/04 04:09:06;;;;;;;34.65;19.52;;;0.90;78.50;;;;;;5031394;28;20435;-63
2020/12/04 04:11:32;;;;;;;32.15;18.02;;;0.90;78.50;;;;;;5035443;28;20040;-63
2020/12/04 04:13:58;;;;;;;39.75;19.88;;;0.90;78.50;;;;;;5047215;28;20086;-63
2020/12/04 04:16:23;;;;;;;35.10;18.33;;;0.90;78.50;;;;;;5035867;28;20453;-63
2020/12/04 04:18:49;;;;;;;31.67;17.13;;;0.90;78.50;;;;;;5048066;28;20526;-63
2020/12/04 04:21:14;;;;;;;28.92;17.05;;;0.90;78.60;;;;;;5038274;28;20033;-64
2020/12/04 04:23:40;;;;;;;32.95;17.80;;;0.90;78.60;;;;;;5040769;28;20044;-61
2020/12/04 04:26:06;;;;;;;39.08;20.58;;;0.90;78.60;;;;;;5051829;28;20033;-64
2020/12/04 04:28:31;;;;;;;37.63;19.95;;;1.00;78.70;;;;;;5032650;28;20129;-64
2020/12/04 04:30:57;;;;;;;35.35;18.08;;;1.00;78.40;;;;;;5039140;28;20112;-64
2020/12/04 04:33:23;;;;;;;33.80;18.52;;;0.90;78.30;;;;;;5051847;28;20116;-64
2020/12/04 04:35:52;;;;;;;33.22;18.42;;;0.90;78.50;;;;;;5039857;28;20033;-62
2020/12/04 04:38:18;;;;;;;38.72;20.05;;;0.90;78.60;;;;;;5061884;22;20497;-68
2020/12/04 04:40:43;;;;;;;37.95;18.73;;;0.90;78.70;;;;;;5013014;28;20120;-68
2020/12/04 04:43:14;;;;;;;33.42;18.02;;;0.90;78.70;;;;;;5028335;28;20557;-68
2020/12/04 04:45:44;;;;;;;36.40;18.80;;;0.90;78.80;;;;;;5024802;28;20052;-68
2020/12/04 04:48:20;;;;;;;34.47;18.10;;;0.90;78.90;;;;;;5022865;28;20064;-68
2020/12/04 04:50:47;;;;;;;33.60;18.15;;;0.90;78.90;;;;;;5037060;28;20036;-68
2020/12/04 04:53:14;;;;;;;34.47;18.42;;;0.90;79.70;;;;;;5051340;28;20021;-70
2020/12/04 04:55:42;;;;;;;36.25;18.88;;;0.90;78.80;;;;;;5047903;28;20029;-69
2020/12/04 04:58:09;;;;;;;28.33;15.57;;;0.90;78.80;;;;;;5042615;28;20037;-68
2020/12/04 05:00:34;;;;;;;36.70;18.77;;;1.00;78.80;;;;;;5040743;28;20044;-68
2020/12/04 05:03:02;;;;;;;35.42;18.38;;;1.00;78.90;;;;;;5041051;28;20041;-69
2020/12/04 05:05:44;;;;;;;34.28;18.63;;;1.00;78.90;;;;;;5020163;28;20033;-69
2020/12/04 05:08:18;;;;;;;36.80;19.30;;;1.00;79.00;;;;;;5048349;28;20447;-68
2020/12/04 05:10:45;;;;;;;36.50;18.77;;;1.00;78.80;;;;;;5039131;28;20042;-68
2020/12/04 05:13:11;;;;;;;34.75;18.50;;;1.00;78.60;;;;;;5045235;28;20033;-69
2020/12/04 05:15:39;;;;;;;34.65;19.08;;;1.00;78.60;;;;;;5038740;28;20034;-68
2020/12/04 05:18:10;;;;;;;34.75;18.58;;;1.10;78.60;;;;;;5047178;28;20033;-69
2020/12/04 05:20:48;;;;;;;31.13;17.30;;;1.00;78.50;;;;;;5035238;28;20029;-69
2020/12/04 05:23:14;;;;;;;33.85;18.25;;;1.10;78.60;;;;;;5027707;28;20041;-68
2020/12/04 05:25:42;;;;;;;35.60;18.05;;;1.00;78.50;;;;;;5045036;28;20044;-68
2020/12/04 05:28:12;;;;;;;33.75;18.70;;;1.00;78.50;;;;;;5020622;28;20104;-69
2020/12/04 05:30:39;;;;;;;31.77;17.35;;;1.00;78.50;;;;;;5030119;28;20130;-68
2020/12/04 05:33:06;;;;;;;32.67;17.38;;;1.00;78.60;;;;;;5044241;28;20357;-69
2020/12/04 05:35:34;;;;;;;32.17;16.25;;;1.00;78.80;;;;;;5043301;28;20025;-68
2020/12/04 05:38:07;;;;;;;31.85;16.80;;;1.00;78.80;;;;;;5040617;28;20037;-68
2020/12/04 05:40:35;;;;;;;33.47;17.80;;;1.00;79.70;;;;;;5028549;28;20427;-69
2020/12/04 05:43:01;;;;;;;31.55;15.95;;;1.00;78.80;;;;;;5047566;28;20079;-69
2020/12/04 05:45:26;;;;;;;33.85;16.80;;;1.00;78.90;;;;;;5046280;28;20025;-69
2020/12/04 05:47:52;;;;;;;31.70;17.52;;;1.00;79.00;;;;;;5045693;28;20033;-68
2020/12/04 05:50:18;;;;;;;29.77;16.63;;;1.00;78.90;;;;;;5042835;28;20044;-69
2020/12/04 05:52:47;;;;;;;32.78;18.40;;;1.10;78.80;;;;;;5047027;28;20037;-69
2020/12/04 05:55:13;;;;;;;36.00;18.55;;;1.10;78.70;;;;;;5046354;28;20139;-69
2020/12/04 05:57:56;;;;;;;34.80;17.98;;;1.00;78.50;;;;;;5049751;28;20132;-69
2020/12/04 06:00:21;;;;;;;35.17;18.30;;;1.10;78.50;;;;;;5028597;28;20051;-69
2020/12/04 06:03:16;;;;;;;33.70;16.90;;;1.00;78.30;;;;;;5032864;28;20037;-69
2020/12/04 06:05:42;;;;;;;33.15;17.23;;;1.00;78.60;;;;;;5032538;28;20119;-68
2020/12/04 06:08:08;;;;;;;33.15;17.38;;;0.90;78.60;;;;;;5039588;28;20123;-69
2020/12/04 06:10:35;;;;;;;33.85;16.88;;;1.00;78.70;;;;;;5045788;28;20029;-69
2020/12/04 06:13:02;;;;;;;34.90;16.98;;;1.00;78.80;;;;;;5047945;28;20033;-68
2020/12/04 06:15:30;;;;;;;30.65;16.42;;;1.00;78.80;;;;;;5049112;28;20057;-69
2020/12/04 06:18:04;;;;;;;33.30;16.83;;;1.00;78.80;;;;;;5049611;28;20029;-68
2020/12/04 06:20:40;;;;;;;29.60;16.70;;;1.00;78.80;;;;;;5031122;28;20577;-68
2020/12/04 06:23:11;;;;;;;32.35;17.67;;;1.10;78.80;;;;;;5049494;28;20048;-68
2020/12/04 06:25:52;;;;;;;32.45;18.10;;;1.10;78.60;;;;;;5049246;28;20059;-68
2020/12/04 06:28:25;;;;;;;34.30;17.38;;;1.10;78.40;;;;;;5049427;28;20563;-68
2020/12/04 06:31:02;;;;;;;32.80;18.17;;;1.10;78.40;;;;;;5047760;28;20069;-69
2020/12/04 06:33:38;;;;;;;33.95;17.48;;;1.10;78.40;;;;;;5042838;28;20033;-69
2020/12/04 06:36:05;;;;;;;32.70;17.23;;;1.10;78.30;;;;;;5048619;28;20071;-69
2020/12/04 06:38:40;;;;;;;30.77;17.33;;;1.00;78.30;;;;;;5048482;28;20578;-68
2020/12/04 06:41:18;;;;;;;33.40;18.10;;;1.00;78.30;;;;;;5049264;28;20029;-70
2020/12/04 06:43:45;;;;;;;32.78;17.55;;;1.00;78.50;;;;;;5048724;28;20037;-69
2020/12/04 06:46:34;;;;;;;34.50;18.27;;;1.00;78.50;;;;;;5047907;28;20514;-68
2020/12/04 06:49:10;;;;;;;35.17;18.92;;;1.00;78.60;;;;;;5044215;28;20617;-69
2020/12/04 06:51:40;;;;;;;32.85;17.38;;;0.90;78.60;;;;;;5047701;28;20025;-68
2020/12/04 06:54:07;;;;;;;31.38;16.65;;;0.90;78.60;;;;;;5033741;28;20175;-68
2020/12/04 06:56:36;;;;;;;35.85;18.10;;;0.90;78.70;;;;;;5048022;28;20083;-68
2020/12/04 06:59:01;;;;;;;32.50;18.02;;;0.90;78.80;;;;;;5047844;28;20415;-68
2020/12/04 07:01:27;;;;;;;36.50;19.23;;;0.90;78.80;;;;;;5042272;28;20046;-69
2020/12/04 07:03:57;;;;;;;33.08;18.65;;;0.90;78.80;;;;;;5040839;28;20040;-69
2020/12/04 07:06:25;;;;;;;35.47;18.98;;;0.90;78.80;;;;;;5038631;28;20061;-69
2020/12/04 07:09:09;;;;;;;36.83;19.00;;;0.90;78.60;;;;;;5042188;28;20033;-69
2020/12/04 07:11:35;;;;;;;32.10;17.90;;;0.90;78.80;;;;;;5036953;28;20041;-70
2020/12/04 07:14:01;;;;;;;35.17;18.42;;;0.90;78.80;;;;;;5048452;28;20044;-69
2020/12/04 07:16:28;;;;;;;35.88;18.17;;;0.90;78.80;;;;;;5047880;28;20500;-70
2020/12/04 07:18:54;;;;;;;36.35;18.27;;;0.90;78.90;;;;;;5048366;28;20044;-69
2020/12/04 07:21:26;;;;;;;31.35;17.88;;;0.90;78.90;;;;;;5048601;28;20037;-69
2020/12/04 07:23:54;;;;;;;36.00;19.40;;;0.90;78.90;;;;;;5047964;28;20523;-70
2020/12/04 07:26:21;;;;;;;42.60;22.40;;;1.00;78.80;;;;;;5048381;28;20611;-70
2020/12/04 07:28:47;;;;;;;34.67;19.13;;;1.00;78.80;;;;;;5028773;28;20069;-69
2020/12/04 07:31:18;;;;;;;40.30;21.15;;;1.00;78.70;;;;;;5041248;28;20124;-69
2020/12/04 07:33:58;;;;;;;37.00;20.40;;;1.00;78.80;;;;;;5044146;28;20623;-69
2020/12/04 07:36:26;;;;;;;37.30;19.83;;;1.00;79.60;;;;;;5039922;28;20033;-69
2020/12/04 07:38:57;;;;;;;36.13;19.83;;;1.00;78.70;;;;;;5026602;28;20124;-69
2020/12/04 07:41:24;;;;;;;36.67;18.80;;;1.10;78.70;;;;;;5041889;28;20400;-69
2020/12/04 07:43:50;;;;;;;34.50;17.70;;;1.10;78.60;;;;;;5035919;28;20456;-69
2020/12/04 07:46:19;;;;;;;39.42;19.42;;;1.10;78.60;;;;;;5048250;28;20138;-68
2020/12/04 07:49:04;;;;;;;33.03;18.08;;;1.10;78.70;;;;;;5048123;28;20045;-69
2020/12/04 07:51:32;;;;;;;41.72;21.15;;;1.10;78.60;;;;;;5046995;28;20105;-70
2020/12/04 07:53:58;;;;;;;38.58;21.20;;;1.20;78.60;;;;;;5047425;28;20534;-69
2020/12/04 07:56:26;;;;;;;41.45;21.25;;;1.10;78.60;;;;;;5047684;28;20037;-69
2020/12/04 07:59:05;;;;;;;30.35;17.52;;;1.20;78.70;;;;;;5047780;28;20044;-69
2020/12/04 08:01:40;;;;;;;33.33;17.95;;;1.20;78.80;;;;;;5047981;28;20492;-69
2020/12/04 08:04:07;;;;;;;36.15;18.30;;;1.20;78.80;;;;;;5034035;28;20049;-67
2020/12/04 08:06:33;;;;;;;33.45;18.40;;;1.20;78.90;;;;;;5016159;28;20103;-69
2020/12/04 08:09:16;;;;;;;37.65;19.77;;;1.20;78.90;;;;;;5047223;28;20279;-70
2020/12/04 08:11:54;;;;;;;34.90;19.02;;;1.30;78.80;;;;;;5042106;28;20073;-70
2020/12/04 08:14:27;;;;;;;35.55;18.60;;;1.30;78.70;;;;;;5046855;28;20041;-70
2020/12/04 08:16:58;;;;;;;34.08;18.13;;;1.30;78.70;;;;;;5046323;28;20507;-70
2020/12/04 08:19:28;;;;;;;37.22;19.73;;;1.30;78.60;;;;;;5050666;28;20115;-70
2020/12/04 08:22:08;;;;;;;35.80;19.42;;;1.30;79.40;;;;;;5046680;28;20044;-71
2020/12/04 08:24:39;;;;;;;39.53;19.58;;;1.40;78.50;;;;;;5050715;28;20534;-67
2020/12/04 08:27:13;;;;;;;33.90;19.17;;;1.40;78.50;;;;;;5052119;28;20573;-69
2020/12/04 08:29:46;;;;;;;28.10;14.60;;;1.40;78.50;;;;;;5050584;28;20045;-69
2020/12/04 08:32:20;;;;;;;36.08;19.75;;;1.40;78.50;;;;;;5046965;28;20119;-68
2020/12/04 08:34:48;;;;;;;34.50;19.00;;;1.40;78.30;;;;;;5047072;28;20045;-70
2020/12/04 08:37:15;;;;;;;35.78;19.23;;;1.40;78.20;;;;;;5051647;28;20041;-68
2020/12/04 08:39:49;;;;;;;32.53;18.55;;;1.30;78.30;;;;;;5051611;28;20037;-68
2020/12/04 08:42:31;;;;;;;33.00;18.50;;;1.30;78.40;;;;;;5051770;28;20436;-68
2020/12/04 08:45:02;;;;;;;33.47;19.40;;;1.30;78.60;;;;;;5045381;28;20029;-68
2020/12/04 08:47:29;;;;;;;37.83;19.33;;;1.40;78.60;;;;;;5050036;28;20029;-69
2020/12/04 08:49:55;;;;;;;35.70;19.48;;;1.40;78.70;;;;;;5036038;28;20040;-69
2020/12/04 08:52:38;;;;;;;37.90;20.05;;;1.40;78.60;;;;;;5032911;28;20033;-69
2020/12/04 08:55:06;;;;;;;34.42;19.73;;;1.40;78.60;;;;;;5050992;28;20074;-68
2020/12/04 08:57:31;;;;;;;37.40;19.58;;;1.40;78.50;;;;;;5050940;28;20028;-68
2020/12/04 08:59:57;;;;;;;36.38;19.13;;;1.50;78.60;;;;;;5050195;28;20029;-67
2020/12/04 09:02:22;;;;;;;36.67;20.38;;;1.50;78.60;;;;;;5050448;28;20029;-69
2020/12/04 09:04:48;;;;;;;34.15;19.52;;;1.50;78.60;;;;;;5050559;28;20569;-68
2020/12/04 09:07:14;;;;;;;38.53;20.48;;;1.50;78.60;;;;;;5050599;28;20029;-69
2020/12/04 09:09:39;;;;;;;36.22;19.80;;;1.50;78.60;;;;;;5050940;28;20041;-68
2020/12/04 09:12:05;;;;;;;36.92;19.38;;;1.60;78.60;;;;;;5045160;28;20462;-68
2020/12/04 09:14:30;;;;;;;35.10;18.67;;;1.60;78.60;;;;;;5049917;28;20526;-67
2020/12/04 09:16:56;;;;;;;35.13;19.73;;;1.70;78.70;;;;;;5049916;28;20056;-69
2020/12/04 09:19:22;;;;;;;36.17;19.38;;;1.70;78.70;;;;;;5050592;28;20044;-68
2020/12/04 09:21:47;;;;;;;34.88;18.60;;;1.70;78.60;;;;;;5049770;28;20037;-69
2020/12/04 09:24:13;;;;;;;36.05;18.50;;;1.80;78.50;;;;;;5050535;28;20114;-68
2020/12/04 09:26:38;;;;;;;35.80;19.65;;;1.80;78.20;;;;;;5049047;28;20430;-69
2020/12/04 09:29:04;;;;;;;33.42;18.42;;;1.80;78.10;;;;;;5050065;28;20044;-70
2020/12/04 09:31:33;;;;;;;35.85;19.05;;;1.80;78.10;;;;;;5026527;28;20487;-68
2020/12/04 09:33:59;;;;;;;36.72;19.60;;;1.70;78.10;;;;;;5046450;28;20064;-69
2020/12/04 09:36:24;;;;;;;36.55;18.35;;;1.80;78.20;;;;;;5047987;28;20480;-70
2020/12/04 09:38:50;;;;;;;37.83;19.85;;;1.80;78.20;;;;;;5043442;28;20762;-69
2020/12/04 09:41:15;;;;;;;32.35;17.67;;;1.80;78.20;;;;;;5024377;28;20026;-70
2020/12/04 09:43:41;;;;;;;34.95;19.35;;;1.80;78.20;;;;;;5027843;28;20037;-69
2020/12/04 09:46:07;;;;;;;38.47;19.73;;;1.80;78.30;;;;;;5049255;28;20029;-68
2020/12/04 09:48:32;;;;;;;34.17;19.17;;;1.80;78.10;;;;;;5045407;28;20112;-67
2020/12/04 09:50:58;;;;;;;39.03;21.52;;;1.90;78.10;;;;;;5049937;28;20029;-69
2020/12/04 09:53:24;;;;;;;37.67;20.35;;;1.90;78.10;;;;;;5049418;28;20392;-69
2020/12/04 09:55:49;;;;;;;41.75;21.23;;;1.90;78.10;;;;;;5046820;28;20044;-69
2020/12/04 09:58:15;;;;;;;35.13;20.00;;;1.90;77.90;;;;;;5049025;28;20033;-69
2020/12/04 10:00:41;;;;;;;36.88;19.88;;;1.90;78.00;;;;;;5048020;28;20080;-66
2020/12/04 10:03:06;;;;;;;38.33;20.45;;;1.80;78.00;;;;;;5050156;28;20033;-69
2020/12/04 10:05:32;;;;;;;37.33;19.60;;;1.80;78.10;;;;;;5050116;28;20037;-69
2020/12/04 10:07:57;;;;;;;40.05;19.70;;;1.80;78.10;;;;;;5048625;28;20060;-68
2020/12/04 10:10:23;;;;;;;42.03;21.95;;;1.80;78.20;;;;;;5030288;28;20344;-69
2020/12/04 10:12:49;;;;;;;42.83;21.13;;;1.80;79.00;;;;;;5048763;28;20120;-68
2020/12/04 10:15:15;;;;;;;39.28;20.77;;;1.80;78.00;;;;;;5049769;28;20032;-69
2020/12/04 10:17:40;;;;;;;37.00;19.95;;;1.80;78.10;;;;;;5049393;28;20072;-68
2020/12/04 10:20:06;;;;;;;35.45;20.38;;;1.80;78.20;;;;;;5049442;28;20446;-69
2020/12/04 10:22:31;;;;;;;40.33;22.27;;;1.80;78.10;;;;;;5048286;28;20362;-69
2020/12/04 10:24:57;;;;;;;35.30;19.75;;;1.80;78.10;;;;;;5049305;28;20452;-69
2020/12/04 10:27:23;;;;;;;41.15;21.35;;;1.80;78.00;;;;;;5048815;28;20094;-69
2020/12/04 10:29:49;;;;;;;39.28;20.92;;;1.80;78.10;;;;;;5048794;28;20385;-69
2020/12/04 10:32:15;;;;;;;45.67;22.20;;;1.80;78.20;;;;;;5049262;28;20036;-68
2020/12/04 10:34:41;;;;;;;40.08;21.02;;;1.80;78.10;;;;;;5048735;28;20180;-69
2020/12/04 10:37:06;;;;;;;37.38;20.27;;;1.80;78.10;;;;;;5060108;22;20040;-64
2020/12/04 10:39:32;;;;;;;39.72;19.70;;;1.90;79.00;;;;;;5069032;28;20040;-64
2020/12/04 10:41:58;;;;;;;40.03;21.42;;;1.90;78.20;;;;;;5063624;28;20055;-64
2020/12/04 10:44:24;;;;;;;41.33;22.63;;;1.90;78.20;;;;;;5045709;28;20048;-64
2020/12/04 10:46:49;;;;;;;47.00;24.33;;;1.90;78.10;;;;;;5048220;28;20033;-64
2020/12/04 10:49:15;;;;;;;41.15;21.88;;;1.90;77.80;;;;;;5048837;28;20057;-64
2020/12/04 10:51:41;;;;;;;42.63;22.50;;;1.90;77.70;;;;;;5047372;28;20037;-64
2020/12/04 10:54:07;;;;;;;44.83;21.95;;;1.80;77.80;;;;;;5042966;28;20060;-64
2020/12/04 10:56:32;;;;;;;42.05;22.88;;;1.80;77.80;;;;;;5043965;28;20766;-64
2020/12/04 10:58:58;;;;;;;43.92;23.35;;;1.80;77.80;;;;;;5044784;28;20039;-64
2020/12/04 11:01:32;;;;;;;46.33;24.08;;;1.70;78.00;;;;;;5042586;28;20416;-65
2020/12/04 11:06:25;;;;;;;46.13;23.17;;;1.70;77.90;;;;;;5047203;28;20589;-65
2020/12/04 11:08:51;;;;;;;50.90;23.67;;;1.60;78.00;;;;;;5049285;28;20045;-64
2020/12/04 11:11:20;;;;;;;45.50;23.05;;;1.60;78.30;;;;;;5042421;28;20025;-65
2020/12/04 11:13:46;;;;;;;42.63;23.42;;;1.60;78.30;;;;;;5046655;28;20112;-64
2020/12/04 11:16:14;;;;;;;41.92;21.95;;;1.60;78.30;;;;;;5049287;28;20080;-65
2020/12/04 11:18:40;;;;;;;41.90;21.73;;;1.60;78.40;;;;;;5048788;28;20740;-64
2020/12/04 11:21:06;;;;;;;52.15;24.98;;;1.60;78.60;;;;;;5043822;28;20037;-65
2020/12/04 11:23:31;;;;;;;46.97;22.90;;;1.70;78.80;;;;;;5038910;28;20479;-64
2020/12/04 11:25:57;;;;;;;44.63;23.15;;;1.70;78.60;;;;;;5047682;28;20052;-64
2020/12/04 11:28:22;;;;;;;42.65;22.27;;;1.70;78.60;;;;;;5039303;28;20467;-65
2020/12/04 11:30:48;;;;;;;43.05;22.77;;;1.70;78.60;;;;;;5048312;28;20040;-64
2020/12/04 11:33:14;;;;;;;43.63;23.15;;;1.70;78.40;;;;;;5047027;28;20492;-64
2020/12/04 11:35:39;;;;;;;40.00;22.48;;;1.80;78.50;;;;;;5064100;28;20048;-65
2020/12/04 11:38:07;;;;;;;46.42;23.80;;;1.80;78.40;;;;;;5037197;28;20394;-65
2020/12/04 11:40:32;;;;;;;42.97;22.02;;;1.80;78.40;;;;;;5034661;28;20029;-64
2020/12/04 11:42:58;;;;;;;41.03;21.52;;;1.80;78.50;;;;;;5044912;28;20033;-65
2020/12/04 11:45:24;;;;;;;41.38;21.83;;;1.80;78.80;;;;;;5046727;28;20045;-64
2020/12/04 11:47:49;;;;;;;47.30;24.17;;;1.80;78.70;;;;;;5044628;28;20048;-65
2020/12/04 11:50:16;;;;;;;63.67;32.58;;;1.90;78.60;;;;;;5046972;28;20496;-65
2020/12/04 11:52:43;;;;;;;49.78;25.40;;;1.90;78.30;;;;;;5050694;28;20056;-65
2020/12/04 11:55:09;;;;;;;47.70;23.20;;;1.90;78.30;;;;;;5051836;28;20542;-64
2020/12/04 11:57:35;;;;;;;42.78;21.58;;;1.90;78.10;;;;;;5052534;28;20135;-65
2020/12/04 12:00:04;;;;;;;42.33;21.33;;;1.80;78.10;;;;;;5052091;28;20109;-65
2020/12/04 12:02:30;;;;;;;43.67;22.45;;;1.80;78.40;;;;;;5051541;28;20444;-64
2020/12/04 12:04:55;;;;;;;42.22;22.33;;;1.80;79.30;;;;;;5051259;28;20056;-65
2020/12/04 12:07:21;;;;;;;46.88;22.90;;;1.80;78.70;;;;;;5045449;28;20419;-65
2020/12/04 12:09:49;;;;;;;46.47;23.73;;;1.90;78.60;;;;;;5051661;28;20052;-65
2020/12/04 12:12:18;;;;;;;49.08;24.25;;;1.90;78.50;;;;;;5039703;28;20029;-65
2020/12/04 12:14:47;;;;;;;49.15;24.17;;;1.90;78.10;;;;;;5042652;28;20045;-64
2020/12/04 12:17:16;;;;;;;48.03;24.10;;;1.90;78.20;;;;;;5051116;28;20033;-65
2020/12/04 12:19:43;;;;;;;45.05;22.02;;;1.90;78.30;;;;;;5052255;28;20567;-64
2020/12/04 12:22:10;;;;;;;48.25;24.50;;;1.90;78.30;;;;;;5050504;28;20052;-65
2020/12/04 12:24:37;;;;;;;48.50;23.92;;;1.90;78.30;;;;;;5050934;28;20040;-64
2020/12/04 12:27:03;;;;;;;41.45;22.58;;;1.90;78.30;;;;;;5045923;28;20071;-64
2020/12/04 12:29:29;;;;;;;47.80;25.48;;;2.00;78.30;;;;;;5048475;28;20148;-64
2020/12/04 12:31:55;;;;;;;44.70;24.17;;;1.90;78.10;;;;;;5051463;28;20175;-64
2020/12/04 12:34:21;;;;;;;49.17;23.98;;;1.90;78.00;;;;;;5050624;28;20553;-64
2020/12/04 12:36:47;;;;;;;50.10;25.00;;;1.90;78.10;;;;;;5051193;28;20423;-64
2020/12/04 12:39:12;;;;;;;46.30;23.85;;;1.90;78.00;;;;;;5051555;28;20033;-65
2020/12/04 12:41:38;;;;;;;49.83;23.42;;;1.90;78.00;;;;;;5051350;28;20033;-64